Hlavní strana
METAR-TAF:

METAR-TAF

Letiště :

Såtenäs, Švédsko

zeměpisná šířka: 58-26N, zeměpisná délka: 012-42E, výška: 54 m

Aktuální stav počasí

Zpráva byla vytvořena před 34 minutami, v 15:50 UTC
Severovýchodní vítr 9 kt
Teplota 5°C
Vlhkost vzduchu 87%
Tlak 1039 hPa
Viditelnost 10 km a více

METAR: ESIB 181550Z AUTO 05009KT 9999 OVC018/// 05/03 Q1039

Čas: 17:24 (16:24 UTC)


TAF: chybějící

Stav a předpovědi počasí z více než 4 000 letišť (zprávy METAR a TAF).

Červené a žluté tečky na mapě představují dostupné meteorologické stanice.

Když kurzor umístíte na tečku, zobrazí se název stanice.

Pak kliknutím zobrazíte stav a předpověď počasí.

Chcete-li změnit mapu, kliknutím na zelené tlačítko se znaménkem +mapu přiblížíte, kliknutím na zelené tlačítko se znaménkem – mapu oddálíte a kliknutím na zelené šipky přejdete na sousední mapy.


METAR-TAF: